sensor_id;sensor_type;location;lat;lon;timestamp;P1;durP1;ratioP1;P2;durP2;ratioP2
48317;SDS011;34127;47.412;9.730;2022-07-29T00:00:10;2.83;;;1.60;;
48317;SDS011;34127;47.412;9.730;2022-07-29T00:02:36;3.15;;;1.55;;
48317;SDS011;34127;47.412;9.730;2022-07-29T00:05:03;4.05;;;1.70;;
48317;SDS011;34127;47.412;9.730;2022-07-29T00:07:29;3.00;;;1.65;;
48317;SDS011;34127;47.412;9.730;2022-07-29T00:09:55;3.88;;;1.70;;
48317;SDS011;34127;47.412;9.730;2022-07-29T00:12:23;2.75;;;1.63;;
48317;SDS011;34127;47.412;9.730;2022-07-29T00:14:49;2.60;;;1.60;;
48317;SDS011;34127;47.412;9.730;2022-07-29T00:17:15;2.85;;;1.50;;
48317;SDS011;34127;47.412;9.730;2022-07-29T00:19:41;2.80;;;1.60;;
48317;SDS011;34127;47.412;9.730;2022-07-29T00:22:07;2.72;;;1.50;;
48317;SDS011;34127;47.412;9.730;2022-07-29T00:24:34;6.78;;;1.70;;
48317;SDS011;34127;47.412;9.730;2022-07-29T00:27:00;2.13;;;1.40;;
48317;SDS011;34127;47.412;9.730;2022-07-29T00:29:26;2.70;;;1.40;;
48317;SDS011;34127;47.412;9.730;2022-07-29T00:31:52;5.05;;;1.77;;
48317;SDS011;34127;47.412;9.730;2022-07-29T00:34:18;3.50;;;1.77;;
48317;SDS011;34127;47.412;9.730;2022-07-29T00:37:03;2.40;;;1.48;;
48317;SDS011;34127;47.412;9.730;2022-07-29T00:39:29;3.03;;;1.98;;
48317;SDS011;34127;47.412;9.730;2022-07-29T00:41:55;2.55;;;1.45;;
48317;SDS011;34127;47.412;9.730;2022-07-29T00:44:21;2.40;;;1.55;;
48317;SDS011;34127;47.412;9.730;2022-07-29T00:46:47;2.80;;;1.60;;
48317;SDS011;34127;47.412;9.730;2022-07-29T00:49:13;4.25;;;1.60;;
48317;SDS011;34127;47.412;9.730;2022-07-29T00:51:39;3.33;;;1.60;;
48317;SDS011;34127;47.412;9.730;2022-07-29T00:54:06;2.88;;;1.60;;
48317;SDS011;34127;47.412;9.730;2022-07-29T00:56:33;4.53;;;1.80;;
48317;SDS011;34127;47.412;9.730;2022-07-29T00:58:59;4.22;;;1.80;;
48317;SDS011;34127;47.412;9.730;2022-07-29T01:01:25;2.80;;;1.70;;
48317;SDS011;34127;47.412;9.730;2022-07-29T01:03:53;4.63;;;1.92;;
48317;SDS011;34127;47.412;9.730;2022-07-29T01:06:19;3.20;;;1.55;;
48317;SDS011;34127;47.412;9.730;2022-07-29T01:08:46;2.67;;;1.63;;
48317;SDS011;34127;47.412;9.730;2022-07-29T01:11:13;3.15;;;1.67;;
48317;SDS011;34127;47.412;9.730;2022-07-29T01:13:40;3.63;;;1.65;;
48317;SDS011;34127;47.412;9.730;2022-07-29T01:16:08;3.25;;;1.70;;
48317;SDS011;34127;47.412;9.730;2022-07-29T01:18:37;2.70;;;1.77;;
48317;SDS011;34127;47.412;9.730;2022-07-29T01:23:48;3.08;;;1.70;;
48317;SDS011;34127;47.412;9.730;2022-07-29T01:34:09;2.97;;;1.55;;
48317;SDS011;34127;47.412;9.730;2022-07-29T01:36:40;4.03;;;1.90;;
48317;SDS011;34127;47.412;9.730;2022-07-29T01:39:19;2.67;;;1.73;;
48317;SDS011;34127;47.412;9.730;2022-07-29T01:41:57;2.80;;;1.60;;
48317;SDS011;34127;47.412;9.730;2022-07-29T01:44:30;3.00;;;1.80;;
48317;SDS011;34127;47.412;9.730;2022-07-29T01:46:58;3.13;;;1.95;;
48317;SDS011;34127;47.412;9.730;2022-07-29T01:49:28;3.65;;;1.83;;
48317;SDS011;34127;47.412;9.730;2022-07-29T01:51:59;6.70;;;2.00;;
48317;SDS011;34127;47.412;9.730;2022-07-29T01:54:32;4.50;;;1.70;;
48317;SDS011;34127;47.412;9.730;2022-07-29T01:57:00;3.78;;;1.75;;
48317;SDS011;34127;47.412;9.730;2022-07-29T01:59:27;4.43;;;2.00;;
48317;SDS011;34127;47.412;9.730;2022-07-29T02:01:55;5.70;;;1.83;;
48317;SDS011;34127;47.412;9.730;2022-07-29T02:04:23;2.88;;;1.70;;
48317;SDS011;34127;47.412;9.730;2022-07-29T02:06:49;2.97;;;1.70;;
48317;SDS011;34127;47.412;9.730;2022-07-29T02:09:16;3.47;;;1.80;;
48317;SDS011;34127;47.412;9.730;2022-07-29T02:11:45;4.47;;;1.90;;
48317;SDS011;34127;47.412;9.730;2022-07-29T02:14:13;5.32;;;2.00;;
48317;SDS011;34127;47.412;9.730;2022-07-29T02:16:40;2.95;;;1.73;;
48317;SDS011;34127;47.412;9.730;2022-07-29T02:19:06;6.80;;;1.98;;
48317;SDS011;34127;47.412;9.730;2022-07-29T02:21:33;5.47;;;2.00;;
48317;SDS011;34127;47.412;9.730;2022-07-29T02:24:01;4.38;;;1.90;;
48317;SDS011;34127;47.412;9.730;2022-07-29T02:26:29;4.47;;;2.42;;
48317;SDS011;34127;47.412;9.730;2022-07-29T02:28:56;6.88;;;2.10;;
48317;SDS011;34127;47.412;9.730;2022-07-29T02:31:24;4.63;;;2.00;;
48317;SDS011;34127;47.412;9.730;2022-07-29T02:33:51;6.15;;;2.00;;
48317;SDS011;34127;47.412;9.730;2022-07-29T02:36:18;4.32;;;2.10;;
48317;SDS011;34127;47.412;9.730;2022-07-29T02:38:46;4.40;;;2.10;;
48317;SDS011;34127;47.412;9.730;2022-07-29T02:41:20;5.18;;;2.35;;
48317;SDS011;34127;47.412;9.730;2022-07-29T02:43:50;3.00;;;2.00;;
48317;SDS011;34127;47.412;9.730;2022-07-29T02:46:19;4.40;;;2.05;;
48317;SDS011;34127;47.412;9.730;2022-07-29T02:48:58;2.90;;;2.08;;
48317;SDS011;34127;47.412;9.730;2022-07-29T02:51:27;4.50;;;2.10;;
48317;SDS011;34127;47.412;9.730;2022-07-29T02:53:56;3.83;;;2.20;;
48317;SDS011;34127;47.412;9.730;2022-07-29T02:56:24;4.00;;;2.08;;
48317;SDS011;34127;47.412;9.730;2022-07-29T02:58:54;4.25;;;2.10;;
48317;SDS011;34127;47.412;9.730;2022-07-29T03:01:25;4.00;;;2.33;;
48317;SDS011;34127;47.412;9.730;2022-07-29T03:03:54;3.65;;;2.08;;
48317;SDS011;34127;47.412;9.730;2022-07-29T03:06:22;4.53;;;2.20;;
48317;SDS011;34127;47.412;9.730;2022-07-29T03:08:49;3.30;;;2.05;;
48317;SDS011;34127;47.412;9.730;2022-07-29T03:11:15;3.22;;;2.13;;
48317;SDS011;34127;47.412;9.730;2022-07-29T03:13:42;3.42;;;2.20;;
48317;SDS011;34127;47.412;9.730;2022-07-29T03:16:09;4.13;;;2.15;;
48317;SDS011;34127;47.412;9.730;2022-07-29T03:18:36;8.30;;;2.35;;
48317;SDS011;34127;47.412;9.730;2022-07-29T03:21:03;6.18;;;2.58;;
48317;SDS011;34127;47.412;9.730;2022-07-29T03:23:29;3.85;;;2.50;;
48317;SDS011;34127;47.412;9.730;2022-07-29T03:25:55;4.07;;;2.42;;
48317;SDS011;34127;47.412;9.730;2022-07-29T03:28:22;5.57;;;2.90;;
48317;SDS011;34127;47.412;9.730;2022-07-29T03:30:49;3.38;;;2.20;;
48317;SDS011;34127;47.412;9.730;2022-07-29T03:33:15;3.90;;;2.35;;
48317;SDS011;34127;47.412;9.730;2022-07-29T03:35:41;5.38;;;2.50;;
48317;SDS011;34127;47.412;9.730;2022-07-29T03:38:08;3.53;;;2.50;;
48317;SDS011;34127;47.412;9.730;2022-07-29T03:40:42;4.95;;;2.08;;
48317;SDS011;34127;47.412;9.730;2022-07-29T03:43:10;4.45;;;2.47;;
48317;SDS011;34127;47.412;9.730;2022-07-29T03:45:37;3.38;;;2.38;;
48317;SDS011;34127;47.412;9.730;2022-07-29T03:48:07;3.38;;;2.30;;
48317;SDS011;34127;47.412;9.730;2022-07-29T03:50:34;3.42;;;1.98;;
48317;SDS011;34127;47.412;9.730;2022-07-29T03:53:00;3.40;;;2.20;;
48317;SDS011;34127;47.412;9.730;2022-07-29T03:55:28;4.88;;;2.35;;
48317;SDS011;34127;47.412;9.730;2022-07-29T03:57:54;6.32;;;2.45;;
48317;SDS011;34127;47.412;9.730;2022-07-29T04:00:23;4.63;;;2.13;;
48317;SDS011;34127;47.412;9.730;2022-07-29T04:02:49;4.07;;;2.20;;
48317;SDS011;34127;47.412;9.730;2022-07-29T04:05:17;5.85;;;2.50;;
48317;SDS011;34127;47.412;9.730;2022-07-29T04:07:44;4.35;;;2.40;;
48317;SDS011;34127;47.412;9.730;2022-07-29T04:10:11;3.20;;;2.20;;
48317;SDS011;34127;47.412;9.730;2022-07-29T04:12:37;3.15;;;2.15;;
48317;SDS011;34127;47.412;9.730;2022-07-29T04:15:03;3.95;;;2.22;;
48317;SDS011;34127;47.412;9.730;2022-07-29T04:17:30;4.55;;;2.25;;
48317;SDS011;34127;47.412;9.730;2022-07-29T04:19:56;3.78;;;2.40;;
48317;SDS011;34127;47.412;9.730;2022-07-29T04:22:22;4.75;;;2.30;;
48317;SDS011;34127;47.412;9.730;2022-07-29T04:24:48;3.25;;;2.10;;
48317;SDS011;34127;47.412;9.730;2022-07-29T04:27:14;6.15;;;2.28;;
48317;SDS011;34127;47.412;9.730;2022-07-29T04:29:40;6.03;;;2.20;;
48317;SDS011;34127;47.412;9.730;2022-07-29T04:32:06;6.95;;;2.30;;
48317;SDS011;34127;47.412;9.730;2022-07-29T04:34:32;4.35;;;2.55;;
48317;SDS011;34127;47.412;9.730;2022-07-29T04:36:59;8.90;;;2.60;;
48317;SDS011;34127;47.412;9.730;2022-07-29T04:39:25;3.45;;;2.40;;
48317;SDS011;34127;47.412;9.730;2022-07-29T04:41:51;4.43;;;2.60;;
48317;SDS011;34127;47.412;9.730;2022-07-29T04:44:17;4.03;;;2.20;;
48317;SDS011;34127;47.412;9.730;2022-07-29T04:46:44;5.18;;;2.35;;
48317;SDS011;34127;47.412;9.730;2022-07-29T04:49:10;4.78;;;2.30;;
48317;SDS011;34127;47.412;9.730;2022-07-29T04:51:36;5.70;;;2.28;;
48317;SDS011;34127;47.412;9.730;2022-07-29T04:54:02;4.25;;;2.50;;
48317;SDS011;34127;47.412;9.730;2022-07-29T04:56:28;4.45;;;2.15;;
48317;SDS011;34127;47.412;9.730;2022-07-29T04:58:55;4.00;;;2.08;;
48317;SDS011;34127;47.412;9.730;2022-07-29T05:01:21;3.85;;;2.03;;
48317;SDS011;34127;47.412;9.730;2022-07-29T05:03:47;3.83;;;2.20;;
48317;SDS011;34127;47.412;9.730;2022-07-29T05:06:13;7.90;;;2.20;;
48317;SDS011;34127;47.412;9.730;2022-07-29T05:08:39;5.75;;;2.30;;
48317;SDS011;34127;47.412;9.730;2022-07-29T05:11:05;5.78;;;2.70;;
48317;SDS011;34127;47.412;9.730;2022-07-29T05:13:31;4.45;;;2.28;;
48317;SDS011;34127;47.412;9.730;2022-07-29T05:15:58;3.85;;;2.28;;
48317;SDS011;34127;47.412;9.730;2022-07-29T05:18:24;4.85;;;2.42;;
48317;SDS011;34127;47.412;9.730;2022-07-29T05:20:51;4.10;;;2.28;;
48317;SDS011;34127;47.412;9.730;2022-07-29T05:23:17;3.95;;;2.10;;
48317;SDS011;34127;47.412;9.730;2022-07-29T05:25:43;7.07;;;2.65;;
48317;SDS011;34127;47.412;9.730;2022-07-29T05:28:11;6.50;;;2.28;;
48317;SDS011;34127;47.412;9.730;2022-07-29T05:30:37;4.72;;;2.20;;
48317;SDS011;34127;47.412;9.730;2022-07-29T05:33:03;4.78;;;2.28;;
48317;SDS011;34127;47.412;9.730;2022-07-29T05:35:29;6.47;;;2.30;;
48317;SDS011;34127;47.412;9.730;2022-07-29T05:37:55;4.78;;;2.20;;
48317;SDS011;34127;47.412;9.730;2022-07-29T05:40:21;6.05;;;2.70;;
48317;SDS011;34127;47.412;9.730;2022-07-29T05:42:47;3.47;;;2.10;;
48317;SDS011;34127;47.412;9.730;2022-07-29T05:45:14;3.38;;;2.08;;
48317;SDS011;34127;47.412;9.730;2022-07-29T05:47:40;4.57;;;2.10;;
48317;SDS011;34127;47.412;9.730;2022-07-29T05:50:06;4.65;;;2.33;;
48317;SDS011;34127;47.412;9.730;2022-07-29T05:52:32;3.03;;;2.00;;
48317;SDS011;34127;47.412;9.730;2022-07-29T05:54:58;4.65;;;2.17;;
48317;SDS011;34127;47.412;9.730;2022-07-29T05:57:27;4.18;;;2.38;;
48317;SDS011;34127;47.412;9.730;2022-07-29T05:59:53;3.72;;;2.40;;
48317;SDS011;34127;47.412;9.730;2022-07-29T06:02:19;4.88;;;2.10;;
48317;SDS011;34127;47.412;9.730;2022-07-29T06:04:46;4.75;;;2.78;;
48317;SDS011;34127;47.412;9.730;2022-07-29T06:07:12;5.20;;;2.10;;
48317;SDS011;34127;47.412;9.730;2022-07-29T06:09:38;6.10;;;2.30;;
48317;SDS011;34127;47.412;9.730;2022-07-29T06:12:04;4.90;;;2.28;;
48317;SDS011;34127;47.412;9.730;2022-07-29T06:14:30;3.90;;;2.10;;
48317;SDS011;34127;47.412;9.730;2022-07-29T06:16:57;11.45;;;3.17;;
48317;SDS011;34127;47.412;9.730;2022-07-29T06:19:23;6.00;;;2.45;;
48317;SDS011;34127;47.412;9.730;2022-07-29T06:21:49;3.08;;;2.10;;
48317;SDS011;34127;47.412;9.730;2022-07-29T06:24:16;10.38;;;2.47;;
48317;SDS011;34127;47.412;9.730;2022-07-29T06:26:42;6.47;;;2.47;;
48317;SDS011;34127;47.412;9.730;2022-07-29T06:29:08;4.22;;;2.30;;
48317;SDS011;34127;47.412;9.730;2022-07-29T06:31:38;3.97;;;2.40;;
48317;SDS011;34127;47.412;9.730;2022-07-29T06:34:04;4.70;;;2.40;;
48317;SDS011;34127;47.412;9.730;2022-07-29T06:36:30;5.82;;;2.25;;
48317;SDS011;34127;47.412;9.730;2022-07-29T06:38:56;8.90;;;2.42;;
48317;SDS011;34127;47.412;9.730;2022-07-29T06:41:22;6.00;;;2.50;;
48317;SDS011;34127;47.412;9.730;2022-07-29T06:43:48;4.82;;;2.75;;
48317;SDS011;34127;47.412;9.730;2022-07-29T06:46:17;4.68;;;2.80;;
48317;SDS011;34127;47.412;9.730;2022-07-29T06:48:43;4.53;;;2.60;;
48317;SDS011;34127;47.412;9.730;2022-07-29T06:51:10;4.45;;;2.50;;
48317;SDS011;34127;47.412;9.730;2022-07-29T06:53:37;6.30;;;2.63;;
48317;SDS011;34127;47.412;9.730;2022-07-29T06:56:04;6.10;;;2.47;;
48317;SDS011;34127;47.412;9.730;2022-07-29T06:58:30;5.93;;;2.85;;
48317;SDS011;34127;47.412;9.730;2022-07-29T07:00:57;6.03;;;2.13;;
48317;SDS011;34127;47.412;9.730;2022-07-29T07:03:23;5.70;;;2.28;;
48317;SDS011;34127;47.412;9.730;2022-07-29T07:05:49;5.15;;;2.17;;
48317;SDS011;34127;47.412;9.730;2022-07-29T07:08:16;4.18;;;2.40;;
48317;SDS011;34127;47.412;9.730;2022-07-29T07:10:42;6.90;;;2.15;;
48317;SDS011;34127;47.412;9.730;2022-07-29T07:13:09;7.68;;;2.30;;
48317;SDS011;34127;47.412;9.730;2022-07-29T07:15:35;4.03;;;2.35;;
48317;SDS011;34127;47.412;9.730;2022-07-29T07:18:02;5.85;;;2.05;;
48317;SDS011;34127;47.412;9.730;2022-07-29T07:20:28;4.82;;;1.95;;
48317;SDS011;34127;47.412;9.730;2022-07-29T07:22:54;4.00;;;2.08;;
48317;SDS011;34127;47.412;9.730;2022-07-29T07:25:20;3.70;;;2.08;;
48317;SDS011;34127;47.412;9.730;2022-07-29T07:27:46;3.65;;;1.77;;
48317;SDS011;34127;47.412;9.730;2022-07-29T07:30:13;3.75;;;2.08;;
48317;SDS011;34127;47.412;9.730;2022-07-29T07:32:39;4.40;;;2.30;;
48317;SDS011;34127;47.412;9.730;2022-07-29T07:35:06;3.42;;;1.95;;
48317;SDS011;34127;47.412;9.730;2022-07-29T07:37:32;7.07;;;2.50;;
48317;SDS011;34127;47.412;9.730;2022-07-29T07:39:59;4.82;;;2.00;;
48317;SDS011;34127;47.412;9.730;2022-07-29T07:42:26;4.13;;;2.20;;
48317;SDS011;34127;47.412;9.730;2022-07-29T07:44:52;3.92;;;1.85;;
48317;SDS011;34127;47.412;9.730;2022-07-29T07:47:18;2.83;;;1.80;;
48317;SDS011;34127;47.412;9.730;2022-07-29T07:49:48;5.13;;;2.13;;
48317;SDS011;34127;47.412;9.730;2022-07-29T07:52:15;3.83;;;1.85;;
48317;SDS011;34127;47.412;9.730;2022-07-29T07:54:41;2.97;;;1.80;;
48317;SDS011;34127;47.412;9.730;2022-07-29T07:57:09;4.10;;;2.28;;
48317;SDS011;34127;47.412;9.730;2022-07-29T07:59:35;3.03;;;1.80;;
48317;SDS011;34127;47.412;9.730;2022-07-29T08:02:01;3.05;;;1.85;;
48317;SDS011;34127;47.412;9.730;2022-07-29T08:04:27;4.25;;;1.90;;
48317;SDS011;34127;47.412;9.730;2022-07-29T08:06:53;3.72;;;2.03;;
48317;SDS011;34127;47.412;9.730;2022-07-29T08:09:20;4.00;;;2.00;;
48317;SDS011;34127;47.412;9.730;2022-07-29T08:11:46;4.22;;;2.03;;
48317;SDS011;34127;47.412;9.730;2022-07-29T08:14:12;6.45;;;2.25;;
48317;SDS011;34127;47.412;9.730;2022-07-29T08:16:39;6.75;;;2.47;;
48317;SDS011;34127;47.412;9.730;2022-07-29T08:19:06;3.58;;;2.00;;
48317;SDS011;34127;47.412;9.730;2022-07-29T08:21:32;5.70;;;2.15;;
48317;SDS011;34127;47.412;9.730;2022-07-29T08:23:58;4.72;;;2.35;;
48317;SDS011;34127;47.412;9.730;2022-07-29T08:29:10;3.75;;;2.53;;
48317;SDS011;34127;47.412;9.730;2022-07-29T08:31:37;3.95;;;2.20;;
48317;SDS011;34127;47.412;9.730;2022-07-29T08:34:03;4.35;;;2.22;;
48317;SDS011;34127;47.412;9.730;2022-07-29T08:36:30;4.18;;;1.85;;
48317;SDS011;34127;47.412;9.730;2022-07-29T08:38:57;3.95;;;2.00;;
48317;SDS011;34127;47.412;9.730;2022-07-29T08:41:23;3.33;;;2.20;;
48317;SDS011;34127;47.412;9.730;2022-07-29T08:43:49;4.63;;;2.28;;
48317;SDS011;34127;47.412;9.730;2022-07-29T08:46:16;6.47;;;2.40;;
48317;SDS011;34127;47.412;9.730;2022-07-29T08:48:43;4.20;;;2.35;;
48317;SDS011;34127;47.412;9.730;2022-07-29T08:51:12;5.80;;;2.30;;
48317;SDS011;34127;47.412;9.730;2022-07-29T08:53:40;4.80;;;2.83;;
48317;SDS011;34127;47.412;9.730;2022-07-29T08:56:07;6.05;;;2.78;;
48317;SDS011;34127;47.412;9.730;2022-07-29T08:58:37;4.93;;;2.67;;
48317;SDS011;34127;47.412;9.730;2022-07-29T09:01:03;5.05;;;2.80;;
48317;SDS011;34127;47.412;9.730;2022-07-29T09:03:30;4.82;;;3.03;;
48317;SDS011;34127;47.412;9.730;2022-07-29T09:05:58;5.80;;;2.58;;
48317;SDS011;34127;47.412;9.730;2022-07-29T09:08:24;4.32;;;2.58;;
48317;SDS011;34127;47.412;9.730;2022-07-29T09:10:50;4.28;;;2.50;;
48317;SDS011;34127;47.412;9.730;2022-07-29T09:13:17;5.80;;;2.50;;
48317;SDS011;34127;47.412;9.730;2022-07-29T09:15:43;4.07;;;2.30;;
48317;SDS011;34127;47.412;9.730;2022-07-29T09:18:10;3.92;;;2.78;;
48317;SDS011;34127;47.412;9.730;2022-07-29T09:20:36;4.50;;;2.28;;
48317;SDS011;34127;47.412;9.730;2022-07-29T09:23:21;4.50;;;2.50;;
48317;SDS011;34127;47.412;9.730;2022-07-29T09:25:47;4.18;;;2.50;;
48317;SDS011;34127;47.412;9.730;2022-07-29T09:28:14;4.03;;;2.70;;
48317;SDS011;34127;47.412;9.730;2022-07-29T09:33:17;6.93;;;2.72;;
48317;SDS011;34127;47.412;9.730;2022-07-29T09:35:43;5.38;;;2.90;;
48317;SDS011;34127;47.412;9.730;2022-07-29T09:38:13;5.47;;;2.67;;
48317;SDS011;34127;47.412;9.730;2022-07-29T09:40:40;6.07;;;3.80;;
48317;SDS011;34127;47.412;9.730;2022-07-29T09:43:09;7.72;;;3.20;;
48317;SDS011;34127;47.412;9.730;2022-07-29T09:45:35;6.97;;;3.40;;
48317;SDS011;34127;47.412;9.730;2022-07-29T09:48:15;4.15;;;2.53;;
48317;SDS011;34127;47.412;9.730;2022-07-29T09:50:43;4.50;;;2.63;;
48317;SDS011;34127;47.412;9.730;2022-07-29T09:53:10;8.45;;;2.88;;
48317;SDS011;34127;47.412;9.730;2022-07-29T09:55:48;4.03;;;2.70;;
48317;SDS011;34127;47.412;9.730;2022-07-29T09:58:15;4.28;;;2.80;;
48317;SDS011;34127;47.412;9.730;2022-07-29T10:00:42;7.80;;;2.80;;
48317;SDS011;34127;47.412;9.730;2022-07-29T10:03:08;5.75;;;2.70;;
48317;SDS011;34127;47.412;9.730;2022-07-29T10:05:34;6.72;;;2.60;;
48317;SDS011;34127;47.412;9.730;2022-07-29T10:08:00;5.00;;;2.60;;
48317;SDS011;34127;47.412;9.730;2022-07-29T10:12:54;5.75;;;2.72;;
48317;SDS011;34127;47.412;9.730;2022-07-29T10:15:21;5.20;;;2.80;;
48317;SDS011;34127;47.412;9.730;2022-07-29T10:17:49;4.78;;;3.20;;
48317;SDS011;34127;47.412;9.730;2022-07-29T10:20:15;6.30;;;3.30;;
48317;SDS011;34127;47.412;9.730;2022-07-29T10:22:42;4.30;;;2.65;;
48317;SDS011;34127;47.412;9.730;2022-07-29T10:25:09;5.72;;;2.95;;
48317;SDS011;34127;47.412;9.730;2022-07-29T10:27:35;6.90;;;3.05;;
48317;SDS011;34127;47.412;9.730;2022-07-29T10:30:03;4.28;;;2.90;;
48317;SDS011;34127;47.412;9.730;2022-07-29T10:35:08;4.47;;;2.90;;
48317;SDS011;34127;47.412;9.730;2022-07-29T10:43:07;5.03;;;2.90;;
48317;SDS011;34127;47.412;9.730;2022-07-29T10:45:40;4.45;;;2.88;;
48317;SDS011;34127;47.412;9.730;2022-07-29T10:48:06;5.50;;;3.10;;
48317;SDS011;34127;47.412;9.730;2022-07-29T10:53:19;4.55;;;2.88;;
48317;SDS011;34127;47.412;9.730;2022-07-29T10:55:46;4.80;;;2.70;;
48317;SDS011;34127;47.412;9.730;2022-07-29T10:58:18;4.50;;;2.60;;
48317;SDS011;34127;47.412;9.730;2022-07-29T11:00:46;4.05;;;2.20;;
48317;SDS011;34127;47.412;9.730;2022-07-29T11:05:57;3.78;;;2.40;;
48317;SDS011;34127;47.412;9.730;2022-07-29T11:08:24;3.38;;;2.38;;
48317;SDS011;34127;47.412;9.730;2022-07-29T11:10:51;3.65;;;2.10;;
48317;SDS011;34127;47.412;9.730;2022-07-29T11:16:03;3.20;;;2.22;;
48317;SDS011;34127;47.412;9.730;2022-07-29T11:18:31;3.83;;;2.03;;
48317;SDS011;34127;47.412;9.730;2022-07-29T11:20:58;3.13;;;2.00;;
48317;SDS011;34127;47.412;9.730;2022-07-29T11:23:28;4.50;;;2.17;;
48317;SDS011;34127;47.412;9.730;2022-07-29T11:29:01;3.35;;;1.90;;
48317;SDS011;34127;47.412;9.730;2022-07-29T11:34:15;4.35;;;1.90;;
48317;SDS011;34127;47.412;9.730;2022-07-29T11:39:27;3.25;;;1.73;;
48317;SDS011;34127;47.412;9.730;2022-07-29T11:42:03;4.22;;;1.80;;
48317;SDS011;34127;47.412;9.730;2022-07-29T11:47:25;4.13;;;1.80;;
48317;SDS011;34127;47.412;9.730;2022-07-29T11:49:52;2.65;;;1.70;;
48317;SDS011;34127;47.412;9.730;2022-07-29T11:52:19;3.22;;;1.88;;
48317;SDS011;34127;47.412;9.730;2022-07-29T11:54:47;3.60;;;1.80;;
48317;SDS011;34127;47.412;9.730;2022-07-29T11:57:22;3.42;;;1.70;;
48317;SDS011;34127;47.412;9.730;2022-07-29T11:59:50;4.30;;;1.90;;
48317;SDS011;34127;47.412;9.730;2022-07-29T12:02:16;4.30;;;1.90;;
48317;SDS011;34127;47.412;9.730;2022-07-29T12:04:52;3.13;;;1.80;;
48317;SDS011;34127;47.412;9.730;2022-07-29T12:07:19;3.08;;;1.90;;
48317;SDS011;34127;47.412;9.730;2022-07-29T12:09:52;3.53;;;1.90;;
48317;SDS011;34127;47.412;9.730;2022-07-29T12:12:18;4.55;;;2.10;;
48317;SDS011;34127;47.412;9.730;2022-07-29T12:14:45;4.50;;;2.10;;
48317;SDS011;34127;47.412;9.730;2022-07-29T12:20:10;5.72;;;2.13;;
48317;SDS011;34127;47.412;9.730;2022-07-29T12:22:39;3.50;;;1.98;;
48317;SDS011;34127;47.412;9.730;2022-07-29T12:25:10;4.90;;;1.98;;
48317;SDS011;34127;47.412;9.730;2022-07-29T12:27:36;2.90;;;2.00;;
48317;SDS011;34127;47.412;9.730;2022-07-29T12:30:06;3.72;;;2.17;;
48317;SDS011;34127;47.412;9.730;2022-07-29T12:32:37;3.55;;;2.17;;
48317;SDS011;34127;47.412;9.730;2022-07-29T12:35:04;4.57;;;2.20;;
48317;SDS011;34127;47.412;9.730;2022-07-29T12:37:32;4.40;;;2.20;;
48317;SDS011;34127;47.412;9.730;2022-07-29T12:39:59;3.85;;;2.30;;
48317;SDS011;34127;47.412;9.730;2022-07-29T12:42:25;3.33;;;2.30;;
48317;SDS011;34127;47.412;9.730;2022-07-29T12:44:51;5.00;;;2.20;;
48317;SDS011;34127;47.412;9.730;2022-07-29T12:47:18;3.38;;;2.40;;
48317;SDS011;34127;47.412;9.730;2022-07-29T12:49:44;3.67;;;2.30;;
48317;SDS011;34127;47.412;9.730;2022-07-29T12:52:24;3.53;;;2.10;;
48317;SDS011;34127;47.412;9.730;2022-07-29T12:54:51;5.10;;;2.33;;
48317;SDS011;34127;47.412;9.730;2022-07-29T12:57:17;3.28;;;2.30;;
48317;SDS011;34127;47.412;9.730;2022-07-29T12:59:43;3.80;;;2.33;;
48317;SDS011;34127;47.412;9.730;2022-07-29T13:02:20;4.18;;;2.22;;
48317;SDS011;34127;47.412;9.730;2022-07-29T13:04:57;3.40;;;2.47;;
48317;SDS011;34127;47.412;9.730;2022-07-29T13:07:27;4.63;;;2.55;;
48317;SDS011;34127;47.412;9.730;2022-07-29T13:09:54;4.57;;;2.25;;
48317;SDS011;34127;47.412;9.730;2022-07-29T13:12:21;4.55;;;2.17;;
48317;SDS011;34127;47.412;9.730;2022-07-29T13:14:48;3.47;;;2.20;;
48317;SDS011;34127;47.412;9.730;2022-07-29T13:19:42;3.55;;;2.20;;
48317;SDS011;34127;47.412;9.730;2022-07-29T13:22:11;3.50;;;2.25;;
48317;SDS011;34127;47.412;9.730;2022-07-29T13:24:48;3.97;;;2.28;;
48317;SDS011;34127;47.412;9.730;2022-07-29T13:27:15;3.30;;;2.00;;
48317;SDS011;34127;47.412;9.730;2022-07-29T13:29:41;5.15;;;2.13;;
48317;SDS011;34127;47.412;9.730;2022-07-29T13:32:07;2.83;;;2.03;;
48317;SDS011;34127;47.412;9.730;2022-07-29T13:34:33;3.63;;;2.10;;
48317;SDS011;34127;47.412;9.730;2022-07-29T13:36:59;3.28;;;2.10;;
48317;SDS011;34127;47.412;9.730;2022-07-29T13:39:25;3.70;;;2.10;;
48317;SDS011;34127;47.412;9.730;2022-07-29T13:41:51;4.03;;;1.98;;
48317;SDS011;34127;47.412;9.730;2022-07-29T13:44:18;3.30;;;1.80;;
48317;SDS011;34127;47.412;9.730;2022-07-29T13:46:44;3.60;;;2.00;;
48317;SDS011;34127;47.412;9.730;2022-07-29T13:49:10;3.15;;;2.00;;
48317;SDS011;34127;47.412;9.730;2022-07-29T13:51:36;4.60;;;1.90;;
48317;SDS011;34127;47.412;9.730;2022-07-29T13:54:03;6.90;;;2.30;;
48317;SDS011;34127;47.412;9.730;2022-07-29T13:56:29;3.30;;;2.20;;
48317;SDS011;34127;47.412;9.730;2022-07-29T13:58:55;3.38;;;2.08;;
48317;SDS011;34127;47.412;9.730;2022-07-29T14:01:22;4.57;;;2.00;;
48317;SDS011;34127;47.412;9.730;2022-07-29T14:03:48;3.15;;;2.00;;
48317;SDS011;34127;47.412;9.730;2022-07-29T14:06:14;3.10;;;2.00;;
48317;SDS011;34127;47.412;9.730;2022-07-29T14:08:41;2.80;;;1.83;;
48317;SDS011;34127;47.412;9.730;2022-07-29T14:11:07;3.10;;;2.10;;
48317;SDS011;34127;47.412;9.730;2022-07-29T14:13:34;3.63;;;2.08;;
48317;SDS011;34127;47.412;9.730;2022-07-29T14:16:00;3.47;;;2.13;;
48317;SDS011;34127;47.412;9.730;2022-07-29T14:18:26;4.63;;;2.20;;
48317;SDS011;34127;47.412;9.730;2022-07-29T14:20:52;4.00;;;2.25;;
48317;SDS011;34127;47.412;9.730;2022-07-29T14:23:18;5.50;;;2.30;;
48317;SDS011;34127;47.412;9.730;2022-07-29T14:25:44;4.22;;;2.60;;
48317;SDS011;34127;47.412;9.730;2022-07-29T14:28:11;4.45;;;2.55;;
48317;SDS011;34127;47.412;9.730;2022-07-29T14:30:38;4.07;;;2.35;;
48317;SDS011;34127;47.412;9.730;2022-07-29T14:33:04;5.35;;;2.40;;
48317;SDS011;34127;47.412;9.730;2022-07-29T14:35:31;7.32;;;2.33;;
48317;SDS011;34127;47.412;9.730;2022-07-29T14:37:58;4.32;;;2.33;;
48317;SDS011;34127;47.412;9.730;2022-07-29T14:40:24;4.80;;;2.25;;
48317;SDS011;34127;47.412;9.730;2022-07-29T14:42:50;4.28;;;2.50;;
48317;SDS011;34127;47.412;9.730;2022-07-29T14:45:17;4.50;;;2.70;;
48317;SDS011;34127;47.412;9.730;2022-07-29T14:47:43;4.13;;;2.53;;
48317;SDS011;34127;47.412;9.730;2022-07-29T14:50:09;5.03;;;2.80;;
48317;SDS011;34127;47.412;9.730;2022-07-29T14:52:35;5.13;;;2.70;;
48317;SDS011;34127;47.412;9.730;2022-07-29T14:55:02;4.68;;;2.63;;
48317;SDS011;34127;47.412;9.730;2022-07-29T14:57:28;4.95;;;2.67;;
48317;SDS011;34127;47.412;9.730;2022-07-29T14:59:55;9.25;;;3.00;;
48317;SDS011;34127;47.412;9.730;2022-07-29T15:02:21;4.28;;;2.88;;
48317;SDS011;34127;47.412;9.730;2022-07-29T15:04:47;5.65;;;2.97;;
48317;SDS011;34127;47.412;9.730;2022-07-29T15:07:14;4.90;;;3.20;;
48317;SDS011;34127;47.412;9.730;2022-07-29T15:09:41;4.63;;;3.05;;
48317;SDS011;34127;47.412;9.730;2022-07-29T15:12:08;5.93;;;3.10;;
48317;SDS011;34127;47.412;9.730;2022-07-29T15:14:35;7.03;;;3.10;;
48317;SDS011;34127;47.412;9.730;2022-07-29T15:17:01;5.72;;;3.53;;
48317;SDS011;34127;47.412;9.730;2022-07-29T15:19:27;5.18;;;3.47;;
48317;SDS011;34127;47.412;9.730;2022-07-29T15:21:53;5.40;;;3.45;;
48317;SDS011;34127;47.412;9.730;2022-07-29T15:24:19;8.43;;;3.80;;
48317;SDS011;34127;47.412;9.730;2022-07-29T15:26:46;5.88;;;3.25;;
48317;SDS011;34127;47.412;9.730;2022-07-29T15:29:12;6.00;;;3.30;;
48317;SDS011;34127;47.412;9.730;2022-07-29T15:31:39;6.45;;;3.67;;
48317;SDS011;34127;47.412;9.730;2022-07-29T15:34:05;4.50;;;2.85;;
48317;SDS011;34127;47.412;9.730;2022-07-29T15:36:31;4.53;;;2.75;;
48317;SDS011;34127;47.412;9.730;2022-07-29T15:38:58;5.20;;;3.05;;